createdAt,value
2023-01-29T00:05:16.685Z,-0.75
2023-01-29T00:10:28.413Z,-0.77
2023-01-29T00:15:32.062Z,-0.76
2023-01-29T00:20:35.746Z,-0.73
2023-01-29T00:25:40.978Z,-0.75
2023-01-29T00:30:44.585Z,-0.75
2023-01-29T00:35:48.347Z,-0.80
2023-01-29T00:41:11.028Z,-0.78
2023-01-29T00:46:15.077Z,-0.82
2023-01-29T00:51:18.812Z,-0.70
2023-01-29T00:56:23.954Z,-0.81
2023-01-29T01:01:41.441Z,-0.82
2023-01-29T01:06:45.303Z,-0.84
2023-01-29T01:11:51.292Z,-0.84
2023-01-29T01:16:55.003Z,-0.96
2023-01-29T01:21:58.702Z,-0.94
2023-01-29T01:27:03.813Z,-1.03
2023-01-29T01:32:07.849Z,-1.08
2023-01-29T01:37:11.634Z,-1.20
2023-01-29T01:42:16.892Z,-1.27
2023-01-29T01:47:24.433Z,-1.35
2023-01-29T01:52:28.388Z,-1.27
2023-01-29T01:57:34.251Z,-1.34
2023-01-29T02:02:57.155Z,-1.35
2023-01-29T02:08:18.565Z,-1.26
2023-01-29T02:13:24.620Z,-1.34
2023-01-29T02:18:28.351Z,-1.28
2023-01-29T02:23:55.681Z,-1.29
2023-01-29T02:29:22.720Z,-1.40
2023-01-29T02:34:55.405Z,-1.44
2023-01-29T02:40:08.952Z,-1.51
2023-01-29T02:45:17.250Z,-1.48
2023-01-29T02:50:27.647Z,-1.48
2023-01-29T02:55:37.493Z,-1.53
2023-01-29T03:00:47.228Z,-1.49
2023-01-29T03:05:58.713Z,-1.50
2023-01-29T03:11:06.334Z,-1.51
2023-01-29T03:16:19.943Z,-1.50
2023-01-29T03:21:47.913Z,-1.58
2023-01-29T03:27:10.973Z,-1.55
2023-01-29T03:32:24.093Z,-1.44
2023-01-29T03:37:35.366Z,-1.52
2023-01-29T03:42:52.138Z,-1.58
2023-01-29T03:48:07.911Z,-1.50
2023-01-29T03:53:22.567Z,-1.54
2023-01-29T03:58:36.653Z,-1.39
2023-01-29T04:03:49.800Z,-1.44
2023-01-29T04:09:00.123Z,-1.42
2023-01-29T04:14:05.124Z,-1.37
2023-01-29T04:19:10.391Z,-1.40
2023-01-29T04:24:17.599Z,-1.36
2023-01-29T04:29:38.227Z,-1.36
2023-01-29T04:34:57.002Z,-1.35
2023-01-29T04:40:12.426Z,-1.37
2023-01-29T04:45:24.110Z,-1.37
2023-01-29T04:50:36.080Z,-1.36
2023-01-29T04:55:46.144Z,-1.39
2023-01-29T05:00:54.141Z,-1.30
2023-01-29T05:06:01.807Z,-1.28
2023-01-29T05:11:06.937Z,-1.33
2023-01-29T05:16:16.555Z,-1.32
2023-01-29T05:21:23.580Z,-1.20
2023-01-29T05:26:45.866Z,-1.26
2023-01-29T05:31:49.480Z,-1.16
2023-01-29T05:36:55.300Z,-1.11
2023-01-29T05:41:58.908Z,-1.12
2023-01-29T05:47:03.123Z,-0.92
2023-01-29T05:52:08.340Z,-0.94
2023-01-29T05:57:12.030Z,-0.93
2023-01-29T06:02:15.654Z,-0.93
2023-01-29T06:07:20.938Z,-0.86
2023-01-29T06:12:24.600Z,-0.82
2023-01-29T06:17:28.573Z,-0.82
2023-01-29T06:22:35.061Z,-0.75
2023-01-29T06:27:39.312Z,-0.68
2023-01-29T06:32:43.219Z,-0.63
2023-01-29T06:37:48.441Z,-0.69
2023-01-29T06:42:52.080Z,-0.55
2023-01-29T06:47:55.884Z,-0.64
2023-01-29T06:53:02.246Z,-0.55
2023-01-29T06:58:09.450Z,-0.50
2023-01-29T07:03:13.188Z,-0.51
2023-01-29T07:08:18.460Z,-0.45
2023-01-29T07:13:22.323Z,-0.48
2023-01-29T07:18:26.116Z,-0.45
2023-01-29T07:23:31.397Z,-0.47
2023-01-29T07:28:39.562Z,-0.47
2023-01-29T07:33:45.359Z,-0.36
2023-01-29T07:38:52.800Z,-0.39
2023-01-29T07:43:56.572Z,-0.45
2023-01-29T07:49:01.057Z,-0.45
2023-01-29T07:54:06.688Z,-0.35
2023-01-29T07:59:10.559Z,-0.39
2023-01-29T08:04:14.806Z,-0.21
2023-01-29T08:09:20.299Z,-0.35
2023-01-29T08:14:24.742Z,-0.34
2023-01-29T08:19:28.626Z,-0.32
2023-01-29T08:24:47.682Z,-0.33
2023-01-29T08:29:57.726Z,-0.32
2023-01-29T08:35:01.343Z,-0.31
2023-01-29T08:40:12.443Z,-0.32
2023-01-29T08:45:16.513Z,-0.36
2023-01-29T08:50:21.008Z,-0.26
2023-01-29T08:55:26.315Z,-0.07
2023-01-29T09:00:30.132Z,-0.25
2023-01-29T09:05:34.338Z,-0.04
2023-01-29T09:10:39.679Z,-0.05
2023-01-29T09:15:43.477Z,-0.18
2023-01-29T09:20:47.778Z,-0.07
2023-01-29T09:25:53.150Z,0.05
2023-01-29T09:30:57.040Z,0.04
2023-01-29T09:36:00.986Z,0.18
2023-01-29T09:41:17.362Z,0.15
2023-01-29T09:46:25.326Z,-0.04
2023-01-29T09:51:36.497Z,0.25
2023-01-29T09:56:43.697Z,0.41
2023-01-29T10:01:56.675Z,0.43
2023-01-29T10:07:16.435Z,0.35
2023-01-29T10:12:34.964Z,0.40
2023-01-29T10:17:56.888Z,0.44
2023-01-29T10:23:17.032Z,0.23
2023-01-29T10:28:25.823Z,0.13
2023-01-29T10:33:49.323Z,0.11
2023-01-29T10:39:08.509Z,0.29
2023-01-29T10:44:39.726Z,0.46
2023-01-29T10:50:01.801Z,0.49
2023-01-29T10:55:22.583Z,0.49
2023-01-29T11:00:32.944Z,0.61
2023-01-29T11:05:43.823Z,0.60
2023-01-29T11:10:55.994Z,0.47
2023-01-29T11:16:01.258Z,0.75
2023-01-29T11:21:07.045Z,0.67
2023-01-29T11:26:36.683Z,0.67
2023-01-29T11:31:42.146Z,0.72
2023-01-29T11:36:46.204Z,0.58
2023-01-29T11:41:54.255Z,0.76
2023-01-29T11:47:12.285Z,0.81
2023-01-29T11:52:23.830Z,0.84
2023-01-29T11:57:33.880Z,0.86
2023-01-29T12:02:43.913Z,0.62
2023-01-29T12:07:50.746Z,0.64
2023-01-29T12:13:06.399Z,0.64
2023-01-29T12:18:21.112Z,0.79
2023-01-29T12:23:34.556Z,0.84
2023-01-29T12:28:52.731Z,0.79
2023-01-29T12:34:06.343Z,0.84
2023-01-29T12:39:12.793Z,0.80
2023-01-29T12:44:21.446Z,0.96
2023-01-29T12:49:30.192Z,0.76
2023-01-29T12:54:40.007Z,0.81
2023-01-29T12:59:48.970Z,0.65
2023-01-29T13:05:00.907Z,0.49
2023-01-29T13:10:09.928Z,0.42
2023-01-29T13:15:24.088Z,0.26
2023-01-29T13:20:33.680Z,0.29
2023-01-29T13:25:37.540Z,0.16
2023-01-29T13:30:41.667Z,0.16
2023-01-29T13:35:47.888Z,0.34
2023-01-29T13:40:52.462Z,0.23
2023-01-29T13:45:56.829Z,0.15
2023-01-29T13:51:06.113Z,0.12
2023-01-29T13:56:43.485Z,0.15
2023-01-29T14:02:05.423Z,0.12
2023-01-29T14:07:51.436Z,-0.01
2023-01-29T14:12:56.641Z,0.03
2023-01-29T14:18:16.107Z,-0.09
2023-01-29T14:23:35.873Z,-0.08
2023-01-29T14:28:40.220Z,0.02
2023-01-29T14:33:44.801Z,-0.11
2023-01-29T14:38:52.748Z,-0.08
2023-01-29T14:44:36.398Z,-0.06
2023-01-29T14:49:54.703Z,-0.10
2023-01-29T14:55:04.569Z,-0.20
2023-01-29T15:00:20.342Z,-0.28
2023-01-29T15:05:28.995Z,-0.21
2023-01-29T15:10:41.598Z,-0.31
2023-01-29T15:15:51.566Z,-0.37
2023-01-29T15:21:05.553Z,-0.28
2023-01-29T15:26:16.315Z,-0.31
2023-01-29T15:31:20.310Z,-0.37
2023-01-29T15:36:26.850Z,-0.32
2023-01-29T15:41:32.304Z,-0.29
2023-01-29T15:46:40.552Z,-0.34
2023-01-29T15:51:45.129Z,-0.36
2023-01-29T15:56:53.303Z,-0.29
2023-01-29T16:01:57.808Z,-0.38
2023-01-29T16:07:03.886Z,-0.38
2023-01-29T16:12:13.992Z,-0.38
2023-01-29T16:17:26.123Z,-0.29
2023-01-29T16:22:34.335Z,-0.34
2023-01-29T16:27:43.513Z,-0.39
2023-01-29T16:32:49.063Z,-0.39
2023-01-29T16:37:53.924Z,-0.38
2023-01-29T16:43:31.337Z,-0.46
2023-01-29T16:48:38.207Z,-0.35
2023-01-29T16:53:44.824Z,-0.41
2023-01-29T16:58:56.294Z,-0.39
2023-01-29T17:04:08.421Z,-0.33
2023-01-29T17:09:25.069Z,-0.36
2023-01-29T17:14:32.515Z,-0.48
2023-01-29T17:19:37.678Z,-0.31
2023-01-29T17:24:41.844Z,-0.38
2023-01-29T17:29:47.592Z,-0.38
2023-01-29T17:34:52.454Z,-0.50
2023-01-29T17:40:01.926Z,-0.52
2023-01-29T17:45:12.670Z,-0.50
2023-01-29T17:50:24.397Z,-0.34
2023-01-29T17:55:29.164Z,-0.34
2023-01-29T18:00:35.620Z,-0.37
2023-01-29T18:05:42.714Z,-0.51
2023-01-29T18:10:48.285Z,-0.49
2023-01-29T18:15:57.190Z,-0.49
2023-01-29T18:21:01.435Z,-0.55
2023-01-29T18:26:07.421Z,-0.42
2023-01-29T18:31:15.652Z,-0.46
2023-01-29T18:36:19.754Z,-0.56
2023-01-29T18:41:23.654Z,-0.53
2023-01-29T18:46:32.019Z,-0.59
2023-01-29T18:51:36.239Z,-0.60
2023-01-29T18:57:06.234Z,-0.51
2023-01-29T19:02:08.691Z,-0.53
2023-01-29T19:07:12.928Z,-0.52
2023-01-29T19:12:18.485Z,-0.52
2023-01-29T19:17:26.447Z,-0.57
2023-01-29T19:22:30.689Z,-0.62
2023-01-29T19:27:37.094Z,-0.57
2023-01-29T19:32:46.025Z,-0.57
2023-01-29T19:37:49.855Z,-0.57
2023-01-29T19:42:56.325Z,-0.63
2023-01-29T19:48:01.790Z,-0.56
2023-01-29T19:53:05.726Z,-0.64
2023-01-29T19:58:12.676Z,-0.66
2023-01-29T20:03:17.991Z,-0.57
2023-01-29T20:08:24.071Z,-0.69
2023-01-29T20:13:28.081Z,-0.63
2023-01-29T20:18:34.188Z,-0.72
2023-01-29T20:23:39.071Z,-0.61
2023-01-29T20:28:43.479Z,-0.66
2023-01-29T20:33:49.293Z,-0.67
2023-01-29T20:38:53.142Z,-0.71
2023-01-29T20:43:59.958Z,-0.74
2023-01-29T20:49:07.119Z,-0.61
2023-01-29T20:54:12.771Z,-0.69
2023-01-29T20:59:17.096Z,-0.75
2023-01-29T21:04:23.419Z,-0.74
2023-01-29T21:09:27.195Z,-0.71
2023-01-29T21:14:31.059Z,-0.70
2023-01-29T21:19:36.621Z,-0.71
2023-01-29T21:24:40.464Z,-0.72
2023-01-29T21:29:44.325Z,-0.74
2023-01-29T21:34:52.286Z,-0.67
2023-01-29T21:39:56.290Z,-0.90
2023-01-29T21:44:59.919Z,-0.85
2023-01-29T21:50:05.572Z,-0.94
2023-01-29T21:55:09.920Z,-0.74
2023-01-29T22:00:14.695Z,-0.88
2023-01-29T22:05:20.557Z,-0.78
2023-01-29T22:10:24.394Z,-0.84
2023-01-29T22:15:28.416Z,-0.84
2023-01-29T22:20:33.588Z,-0.91
2023-01-29T22:25:37.699Z,-0.90
2023-01-29T22:30:41.520Z,-0.82
2023-01-29T22:35:46.732Z,-0.88
2023-01-29T22:40:51.576Z,-0.80
2023-01-29T22:45:56.681Z,-0.88
2023-01-29T22:51:10.907Z,-0.91
2023-01-29T22:56:14.790Z,-0.74
2023-01-29T23:01:19.652Z,-0.67
2023-01-29T23:06:25.147Z,-0.64
2023-01-29T23:11:28.834Z,-0.71
2023-01-29T23:16:32.676Z,-1.05
2023-01-29T23:21:37.993Z,-1.02
2023-01-29T23:26:59.136Z,-0.80
2023-01-29T23:32:03.874Z,-0.77
2023-01-29T23:37:09.536Z,-0.76
2023-01-29T23:42:13.341Z,-0.66
2023-01-29T23:47:17.057Z,-0.82
2023-01-29T23:52:22.331Z,-0.82
2023-01-29T23:57:26.134Z,-0.89
